Time;durP1;ratioP1;P1;durP2;ratioP2;P2;SDS_P1;SDS_P2;PMS_P1;PMS_P2;Temp;Humidity;BMP_temperature;BMP_pressure;BME280_temperature;BME280_humidity;BME280_pressure;Samples;Min_cycle;Max_cycle;Signal;HPM_P1;HPM_P2
2023/03/28 00:01:20;;;;;;;4.38;0.82;;;8.70;95.00;;;;;;10520153;28;20016;-62
2023/03/28 00:06:23;;;;;;;5.55;0.80;;;8.80;95.00;;;;;;10524384;28;20035;-63
2023/03/28 00:11:24;;;;;;;5.93;0.90;;;8.70;95.00;;;;;;10515920;28;20024;-63
2023/03/28 00:16:26;;;;;;;1.75;0.70;;;8.70;95.00;;;;;;10520917;28;20028;-63
2023/03/28 00:21:29;;;;;;;3.53;1.23;;;8.70;95.00;;;;;;10518649;28;20069;-64
2023/03/28 00:26:33;;;;;;;4.43;0.90;;;8.70;95.00;;;;;;10515585;28;20464;-63
2023/03/28 00:31:36;;;;;;;6.30;0.95;;;8.70;95.00;;;;;;10516083;28;20024;-62
2023/03/28 00:36:38;;;;;;;4.35;1.38;;;8.70;95.00;;;;;;10521392;28;20020;-63
2023/03/28 00:41:41;;;;;;;4.38;0.70;;;8.20;94.80;;;;;;10524636;28;20020;-64
2023/03/28 00:46:42;;;;;;;4.50;0.70;;;8.60;95.00;;;;;;10525610;28;20016;-63
2023/03/28 00:51:51;;;;;;;3.20;0.80;;;8.60;95.00;;;;;;10519664;28;20458;-63
2023/03/28 00:56:56;;;;;;;4.25;0.75;;;8.60;95.00;;;;;;10517802;28;20110;-64
2023/03/28 01:01:57;;;;;;;3.70;0.68;;;8.50;95.00;;;;;;10516429;28;20020;-63
2023/03/28 01:06:58;;;;;;;3.78;0.68;;;8.50;95.00;;;;;;10517955;28;20027;-62
2023/03/28 01:11:59;;;;;;;3.70;1.02;;;8.50;95.00;;;;;;10517114;28;20012;-62
2023/03/28 01:17:00;;;;;;;2.33;0.75;;;8.50;95.00;;;;;;10518035;28;20420;-64
2023/03/28 01:22:05;;;;;;;2.17;0.60;;;8.50;95.10;;;;;;10518989;28;20020;-63
2023/03/28 01:27:10;;;;;;;4.90;1.27;;;8.50;95.10;;;;;;10519965;28;20035;-64
2023/03/28 01:32:50;;;;;;;2.80;0.70;;;8.50;95.00;;;;;;10518229;28;20028;-63
2023/03/28 01:38:06;;;;;;;5.72;0.80;;;8.50;95.00;;;;;;10518082;28;20035;-63
2023/03/28 01:43:09;;;;;;;5.03;0.80;;;8.40;95.00;;;;;;10508525;28;20027;-63
2023/03/28 01:48:25;;;;;;;2.20;0.65;;;8.40;95.00;;;;;;10520281;28;20020;-63
2023/03/28 01:53:49;;;;;;;4.13;1.00;;;8.40;95.00;;;;;;10516612;28;20396;-62
2023/03/28 01:59:08;;;;;;;4.30;1.02;;;8.40;95.00;;;;;;10517214;28;20038;-62
2023/03/28 02:04:12;;;;;;;5.27;0.80;;;8.40;95.00;;;;;;10520384;28;20464;-64
2023/03/28 02:09:14;;;;;;;4.40;0.73;;;8.30;95.00;;;;;;10515705;28;20081;-64
2023/03/28 02:14:21;;;;;;;3.83;0.93;;;8.30;95.10;;;;;;10513404;28;20029;-64
2023/03/28 02:19:23;;;;;;;3.17;0.70;;;8.30;95.10;;;;;;10521270;28;20020;-62
2023/03/28 02:24:24;;;;;;;2.30;0.52;;;8.30;95.10;;;;;;10518831;28;20031;-62
2023/03/28 02:29:27;;;;;;;2.70;0.73;;;8.30;95.10;;;;;;10514511;28;20044;-64
2023/03/28 02:34:27;;;;;;;1.70;0.30;;;8.20;95.10;;;;;;10515388;28;20027;-63
2023/03/28 02:39:43;;;;;;;3.33;0.73;;;8.20;95.10;;;;;;10522978;28;20016;-63
2023/03/28 02:45:05;;;;;;;1.85;0.40;;;8.20;95.10;;;;;;10515444;28;20049;-63
2023/03/28 02:50:48;;;;;;;1.33;0.40;;;8.20;95.00;;;;;;10522955;28;20496;-63
2023/03/28 02:56:08;;;;;;;3.35;0.60;;;8.10;95.00;;;;;;10518948;28;20031;-63
2023/03/28 03:01:09;;;;;;;2.30;0.50;;;8.10;95.00;;;;;;10517409;28;20017;-62
2023/03/28 03:06:11;;;;;;;3.08;0.60;;;8.10;95.10;;;;;;10526655;28;20439;-64
2023/03/28 03:11:12;;;;;;;2.10;0.35;;;8.10;95.10;;;;;;10519382;28;20491;-63
2023/03/28 03:16:12;;;;;;;3.92;0.52;;;8.10;95.10;;;;;;10521406;28;20025;-62
2023/03/28 03:21:13;;;;;;;2.53;0.60;;;8.10;95.10;;;;;;10525145;28;20201;-64
2023/03/28 03:26:13;;;;;;;3.13;0.50;;;8.10;95.10;;;;;;10525131;28;20077;-62
2023/03/28 03:31:16;;;;;;;2.90;0.50;;;8.10;95.10;;;;;;10523055;28;20024;-62
2023/03/28 03:36:17;;;;;;;0.77;0.30;;;8.00;95.10;;;;;;10518595;28;20020;-63
2023/03/28 03:41:18;;;;;;;3.17;0.60;;;8.00;95.10;;;;;;10527907;28;20107;-63
2023/03/28 03:46:19;;;;;;;1.65;0.40;;;8.00;95.10;;;;;;10520390;28;20469;-63
2023/03/28 03:51:19;;;;;;;2.20;0.60;;;8.00;95.10;;;;;;10521361;28;20040;-63
2023/03/28 03:56:20;;;;;;;3.33;0.52;;;8.00;95.10;;;;;;10521963;28;20040;-62
2023/03/28 04:01:20;;;;;;;1.45;0.50;;;8.00;95.10;;;;;;10517783;28;20019;-63
2023/03/28 04:06:22;;;;;;;1.48;0.45;;;7.90;95.10;;;;;;10522477;28;20585;-63
2023/03/28 04:11:22;;;;;;;3.65;0.55;;;7.90;95.10;;;;;;10520294;28;20026;-63
2023/03/28 04:16:23;;;;;;;3.45;0.82;;;7.90;95.10;;;;;;10526451;28;20024;-62
2023/03/28 04:21:28;;;;;;;4.28;0.80;;;7.90;95.10;;;;;;10522171;28;20063;-63
2023/03/28 04:26:34;;;;;;;2.65;0.60;;;7.90;95.10;;;;;;10520139;28;20016;-63
2023/03/28 04:31:38;;;;;;;3.05;0.32;;;7.90;95.10;;;;;;10519073;28;20020;-63
2023/03/28 04:36:39;;;;;;;1.50;0.57;;;7.90;95.10;;;;;;10522028;28;20085;-63
2023/03/28 04:41:40;;;;;;;4.28;0.52;;;7.90;95.10;;;;;;10523440;28;20024;-63
2023/03/28 04:46:41;;;;;;;2.33;0.80;;;7.90;95.10;;;;;;10520151;28;20036;-61
2023/03/28 04:51:41;;;;;;;2.42;0.50;;;7.90;95.10;;;;;;10522863;28;20056;-63
2023/03/28 04:56:48;;;;;;;2.30;0.63;;;7.90;95.10;;;;;;10521762;28;20016;-63
2023/03/28 05:01:49;;;;;;;1.67;0.30;;;7.90;95.10;;;;;;10520744;28;20141;-62
2023/03/28 05:06:53;;;;;;;3.78;0.73;;;7.80;95.10;;;;;;10519522;28;20386;-63
2023/03/28 05:11:54;;;;;;;1.33;0.55;;;7.80;95.10;;;;;;10516382;28;20027;-63
2023/03/28 05:16:55;;;;;;;3.13;0.57;;;7.80;95.10;;;;;;10522522;28;20027;-63
2023/03/28 05:21:55;;;;;;;2.67;0.65;;;7.80;95.10;;;;;;10520729;28;20019;-63
2023/03/28 05:26:56;;;;;;;1.75;0.47;;;7.80;95.10;;;;;;10520574;28;20582;-63
2023/03/28 05:31:56;;;;;;;2.20;0.40;;;7.80;95.10;;;;;;10520322;28;20074;-63
2023/03/28 05:36:57;;;;;;;1.30;0.50;;;7.80;95.10;;;;;;10518364;28;20028;-63
2023/03/28 05:41:58;;;;;;;1.27;0.40;;;7.80;95.10;;;;;;10519181;28;20488;-62
2023/03/28 05:46:58;;;;;;;3.05;0.50;;;7.90;95.40;;;;;;10520818;28;20067;-63
2023/03/28 05:51:59;;;;;;;3.10;0.68;;;7.80;95.10;;;;;;10521912;28;20020;-62
2023/03/28 05:56:59;;;;;;;0.93;0.40;;;7.80;95.10;;;;;;10516850;28;20032;-63
2023/03/28 06:02:02;;;;;;;4.13;0.68;;;7.80;95.10;;;;;;10506275;28;20732;-62
2023/03/28 06:07:04;;;;;;;2.22;0.55;;;7.80;95.10;;;;;;10518429;28;20078;-63
2023/03/28 06:12:06;;;;;;;1.70;0.50;;;7.80;95.10;;;;;;10516748;28;20141;-63
2023/03/28 06:17:06;;;;;;;1.50;0.65;;;7.80;95.10;;;;;;10518913;28;20433;-63
2023/03/28 06:22:07;;;;;;;1.00;0.60;;;7.80;95.10;;;;;;10519760;28;20025;-62
2023/03/28 06:27:08;;;;;;;2.13;1.00;;;7.80;95.10;;;;;;10528815;28;20035;-64
2023/03/28 06:32:09;;;;;;;2.42;1.00;;;7.80;95.10;;;;;;10527587;28;20036;-62
2023/03/28 06:37:09;;;;;;;2.50;0.90;;;7.70;95.10;;;;;;10530507;28;20024;-62
2023/03/28 06:42:10;;;;;;;7.22;1.33;;;7.70;95.20;;;;;;10527662;28;20118;-62
2023/03/28 06:47:10;;;;;;;1.60;0.73;;;7.70;95.20;;;;;;10523778;28;20442;-62
2023/03/28 06:52:11;;;;;;;4.65;1.10;;;7.70;95.20;;;;;;10527999;28;20024;-63
2023/03/28 06:57:12;;;;;;;3.03;0.90;;;7.70;95.10;;;;;;10525360;28;20016;-61
2023/03/28 07:02:12;;;;;;;2.42;1.00;;;7.70;95.10;;;;;;10527595;28;20027;-63
2023/03/28 07:07:13;;;;;;;2.47;1.10;;;7.70;95.10;;;;;;10525181;28;20024;-62
2023/03/28 07:12:14;;;;;;;3.90;1.02;;;7.70;95.10;;;;;;10523770;28;20020;-63
2023/03/28 07:17:15;;;;;;;3.35;1.05;;;7.80;95.30;;;;;;10527081;28;20091;-63
2023/03/28 07:22:15;;;;;;;4.32;1.00;;;7.90;95.00;;;;;;10520028;28;20481;-62
2023/03/28 07:27:16;;;;;;;3.30;1.20;;;7.90;95.00;;;;;;10527041;28;20496;-61
2023/03/28 07:32:17;;;;;;;3.65;1.30;;;7.90;94.90;;;;;;10523702;28;20036;-63
2023/03/28 07:37:17;;;;;;;2.92;1.30;;;8.00;94.90;;;;;;10527140;28;20064;-62
2023/03/28 07:42:18;;;;;;;3.45;1.13;;;8.00;94.90;;;;;;10525598;28;20107;-62
2023/03/28 07:47:19;;;;;;;1.83;1.20;;;8.00;94.90;;;;;;10526336;28;20411;-63
2023/03/28 07:52:19;;;;;;;2.28;1.05;;;8.10;94.90;;;;;;10522587;28;20036;-63
2023/03/28 07:57:20;;;;;;;2.65;0.90;;;8.10;94.80;;;;;;10526403;28;20389;-63
2023/03/28 08:02:21;;;;;;;4.30;0.98;;;8.20;94.80;;;;;;10528162;28;20089;-62
2023/03/28 08:07:21;;;;;;;2.15;0.98;;;8.20;94.70;;;;;;10524132;28;20972;-64
2023/03/28 08:12:22;;;;;;;1.42;0.70;;;8.20;94.80;;;;;;10526658;28;20028;-63
2023/03/28 08:17:23;;;;;;;2.42;1.00;;;8.20;94.80;;;;;;10511805;28;20032;-62
2023/03/28 08:22:24;;;;;;;7.53;1.38;;;8.20;94.80;;;;;;10522753;28;20020;-63
2023/03/28 08:27:25;;;;;;;3.42;1.05;;;8.30;94.80;;;;;;10527680;28;20024;-62
2023/03/28 08:32:26;;;;;;;1.67;0.90;;;8.30;94.70;;;;;;10524936;28;20023;-63
2023/03/28 08:37:28;;;;;;;2.88;0.70;;;8.40;94.70;;;;;;10523020;28;20072;-63
2023/03/28 08:42:35;;;;;;;1.80;0.70;;;8.40;94.70;;;;;;10525083;28;20209;-63
2023/03/28 08:47:55;;;;;;;3.20;0.80;;;8.40;94.70;;;;;;10518178;28;20384;-63
2023/03/28 08:52:58;;;;;;;3.85;0.68;;;8.40;94.70;;;;;;10520122;28;20035;-63
2023/03/28 08:57:59;;;;;;;2.13;0.90;;;8.50;94.70;;;;;;10519055;28;21242;-63
2023/03/28 09:03:00;;;;;;;1.73;0.73;;;8.50;94.70;;;;;;10519160;28;20069;-63
2023/03/28 09:08:16;;;;;;;1.50;0.68;;;8.50;94.70;;;;;;10520901;28;20544;-63
2023/03/28 09:13:43;;;;;;;1.85;0.60;;;8.50;94.70;;;;;;10518645;28;20114;-63
2023/03/28 09:18:47;;;;;;;2.17;0.60;;;8.60;94.60;;;;;;10519041;28;20035;-62
2023/03/28 09:24:04;;;;;;;3.40;0.93;;;8.60;94.60;;;;;;10519036;28;20028;-63
2023/03/28 09:29:19;;;;;;;3.08;0.90;;;8.70;94.60;;;;;;10520039;28;20050;-63
2023/03/28 09:34:34;;;;;;;3.78;0.80;;;8.70;94.50;;;;;;10515334;28;20507;-63
2023/03/28 09:39:47;;;;;;;3.25;0.68;;;8.80;94.50;;;;;;10519704;28;20034;-65
2023/03/28 09:45:25;;;;;;;1.23;0.70;;;8.80;94.50;;;;;;10512080;28;20039;-63
2023/03/28 09:50:26;;;;;;;4.28;0.77;;;8.80;94.40;;;;;;10492660;28;20039;-64
2023/03/28 09:55:29;;;;;;;1.75;0.80;;;8.90;94.40;;;;;;10520224;28;20147;-63
2023/03/28 10:00:35;;;;;;;2.50;1.02;;;9.00;94.30;;;;;;10529232;28;20020;-62
2023/03/28 10:05:39;;;;;;;0.77;0.57;;;9.00;94.30;;;;;;10517093;28;20051;-63
2023/03/28 10:10:40;;;;;;;1.52;0.75;;;9.00;94.20;;;;;;10524736;28;20070;-63
2023/03/28 10:15:46;;;;;;;1.67;0.65;;;9.10;94.20;;;;;;10528766;28;20158;-64
2023/03/28 10:20:49;;;;;;;2.17;0.73;;;9.10;94.20;;;;;;10528425;28;20024;-62
2023/03/28 10:25:52;;;;;;;1.67;0.52;;;9.10;94.10;;;;;;10526957;28;20539;-64
2023/03/28 10:30:56;;;;;;;1.67;0.60;;;9.20;94.10;;;;;;10529461;28;20506;-64
2023/03/28 10:35:57;;;;;;;2.10;0.80;;;9.20;94.10;;;;;;10525075;28;20451;-62
2023/03/28 10:41:06;;;;;;;1.38;0.75;;;9.20;94.10;;;;;;10528948;28;20104;-63
2023/03/28 10:46:34;;;;;;;2.88;1.02;;;9.20;94.10;;;;;;10525091;28;20032;-63
2023/03/28 10:51:38;;;;;;;3.50;0.90;;;9.30;94.00;;;;;;10519785;28;20041;-63
2023/03/28 10:56:51;;;;;;;1.20;0.77;;;9.30;94.00;;;;;;10525960;28;20423;-63
2023/03/28 11:02:16;;;;;;;3.17;1.40;;;9.30;93.90;;;;;;10525812;28;20108;-63
2023/03/28 11:07:38;;;;;;;2.85;1.05;;;9.40;93.90;;;;;;10524502;28;20114;-63
2023/03/28 11:12:51;;;;;;;2.95;1.10;;;9.40;93.70;;;;;;10524264;28;20178;-63
2023/03/28 11:18:21;;;;;;;1.92;1.02;;;9.50;93.80;;;;;;10521820;28;20546;-63
2023/03/28 11:23:43;;;;;;;3.25;1.20;;;9.50;93.70;;;;;;10520680;28;20126;-63
2023/03/28 11:29:05;;;;;;;3.85;1.20;;;9.60;93.50;;;;;;10518309;28;20372;-63
2023/03/28 11:34:25;;;;;;;3.83;1.20;;;9.60;93.30;;;;;;10522615;28;20084;-63
2023/03/28 11:39:41;;;;;;;4.32;0.95;;;9.70;93.50;;;;;;10520172;28;20020;-63
2023/03/28 11:45:17;;;;;;;1.27;0.80;;;9.70;93.20;;;;;;10524614;28;20059;-64
2023/03/28 11:50:27;;;;;;;3.95;1.27;;;9.70;93.10;;;;;;10522729;28;20495;-64
2023/03/28 11:55:33;;;;;;;3.60;1.15;;;9.80;93.20;;;;;;10523830;28;20008;-63
2023/03/28 12:00:57;;;;;;;2.10;0.98;;;9.80;93.10;;;;;;10519709;28;20024;-63
2023/03/28 12:06:18;;;;;;;3.17;1.05;;;9.80;93.10;;;;;;10520773;28;20040;-63
2023/03/28 12:11:25;;;;;;;2.22;1.25;;;9.90;92.70;;;;;;10522253;28;20024;-63
2023/03/28 12:16:48;;;;;;;4.15;1.20;;;9.90;92.80;;;;;;10523955;28;20031;-63
2023/03/28 12:21:58;;;;;;;4.45;1.40;;;9.90;92.50;;;;;;10518766;28;20216;-63
2023/03/28 12:27:01;;;;;;;2.83;1.20;;;9.90;92.60;;;;;;10523520;28;20031;-63
2023/03/28 12:32:34;;;;;;;3.10;1.23;;;9.90;92.70;;;;;;10524259;28;20031;-63
2023/03/28 12:38:00;;;;;;;2.90;1.30;;;9.90;92.40;;;;;;10515623;28;20536;-64
2023/03/28 12:43:01;;;;;;;2.55;1.10;;;9.90;92.60;;;;;;10522821;28;20519;-63
2023/03/28 12:48:10;;;;;;;3.17;1.77;;;9.90;92.60;;;;;;10522568;28;20403;-62
2023/03/28 12:53:11;;;;;;;;;;;10.00;92.50;;;;;;10521192;28;20036;-63
2023/03/28 12:58:21;;;;;;;2.95;1.45;;;10.00;91.70;;;;;;10523082;28;20463;-64
2023/03/28 13:03:34;;;;;;;3.45;1.60;;;10.00;92.30;;;;;;10519645;28;20020;-62
2023/03/28 13:09:14;;;;;;;3.58;1.70;;;10.00;92.10;;;;;;10518288;28;20115;-64
2023/03/28 13:14:34;;;;;;;4.85;1.67;;;10.10;91.80;;;;;;10521698;28;20399;-63
2023/03/28 13:19:40;;;;;;;4.28;1.23;;;10.10;91.60;;;;;;10518349;28;20392;-62
2023/03/28 13:24:41;;;;;;;6.82;1.60;;;10.00;91.80;;;;;;10523690;28;20035;-63
2023/03/28 13:29:51;;;;;;;3.47;1.63;;;10.10;91.80;;;;;;10519901;28;20020;-62
2023/03/28 13:34:58;;;;;;;2.60;1.48;;;10.10;91.50;;;;;;10522523;28;20040;-64
2023/03/28 13:39:59;;;;;;;4.18;1.77;;;10.10;91.60;;;;;;10514416;28;20073;-64
2023/03/28 13:45:05;;;;;;;4.78;2.05;;;10.10;91.60;;;;;;10521283;28;20457;-63
2023/03/28 13:50:18;;;;;;;3.10;2.00;;;10.10;91.20;;;;;;10521400;28;20022;-63
2023/03/28 13:55:27;;;;;;;3.78;1.88;;;10.10;91.00;;;;;;10518778;28;20296;-65
2023/03/28 14:00:29;;;;;;;2.75;1.75;;;10.10;91.10;;;;;;10517738;28;20032;-67
2023/03/28 14:05:32;;;;;;;6.32;3.05;;;10.10;91.40;;;;;;10519049;28;20111;-67
2023/03/28 14:10:38;;;;;;;11.63;3.95;;;10.00;91.00;;;;;;10521589;28;20541;-67
2023/03/28 14:15:39;;;;;;;9.50;2.78;;;9.90;90.40;;;;;;10523150;28;20047;-63
2023/03/28 14:20:42;;;;;;;3.95;2.10;;;9.90;90.60;;;;;;10519204;28;20436;-64
2023/03/28 14:25:44;;;;;;;6.00;2.22;;;9.90;90.70;;;;;;10524721;28;20429;-63
2023/03/28 14:30:44;;;;;;;3.40;1.70;;;10.00;90.80;;;;;;10524516;28;20020;-63
2023/03/28 14:36:04;;;;;;;3.95;2.03;;;10.00;90.80;;;;;;10528247;28;20024;-62
2023/03/28 14:41:26;;;;;;;4.10;1.95;;;9.90;90.60;;;;;;10520110;28;20017;-63
2023/03/28 14:46:30;;;;;;;3.13;1.70;;;10.00;90.60;;;;;;10534532;28;20020;-63
2023/03/28 14:51:44;;;;;;;1.95;1.70;;;9.90;90.90;;;;;;10525957;28;20063;-63
2023/03/28 14:56:45;;;;;;;4.65;1.65;;;10.00;90.80;;;;;;10529716;28;20447;-64
2023/03/28 15:01:48;;;;;;;4.72;1.63;;;9.90;90.80;;;;;;10527349;28;20101;-63
2023/03/28 15:06:54;;;;;;;2.40;1.80;;;10.00;90.80;;;;;;10527741;28;20028;-63
2023/03/28 15:11:57;;;;;;;7.30;2.15;;;10.00;90.90;;;;;;10527031;28;20043;-63
2023/03/28 15:16:59;;;;;;;6.20;1.80;;;9.80;90.80;;;;;;10534548;28;20511;-64
2023/03/28 15:22:03;;;;;;;5.10;1.30;;;10.00;90.90;;;;;;10530286;28;20101;-63
2023/03/28 15:27:06;;;;;;;4.97;1.67;;;10.00;90.80;;;;;;10532055;28;20032;-63
2023/03/28 15:32:15;;;;;;;3.85;1.60;;;10.00;90.90;;;;;;10526222;28;20607;-63
2023/03/28 15:37:21;;;;;;;4.70;1.70;;;10.00;90.80;;;;;;10528687;28;20434;-62
2023/03/28 15:42:33;;;;;;;2.00;1.35;;;10.00;90.90;;;;;;10523063;28;20035;-63
2023/03/28 15:47:34;;;;;;;3.53;1.33;;;9.90;90.80;;;;;;10526677;28;20077;-63
2023/03/28 15:52:35;;;;;;;5.13;2.30;;;9.90;91.10;;;;;;10519846;28;20031;-63
2023/03/28 15:57:35;;;;;;;2.85;1.35;;;9.90;91.10;;;;;;10533827;28;20027;-63
2023/03/28 16:02:37;;;;;;;2.58;1.63;;;9.90;91.10;;;;;;10521716;28;20024;-63
2023/03/28 16:07:47;;;;;;;4.30;1.40;;;9.90;91.20;;;;;;10523116;28;20035;-64
2023/03/28 16:12:49;;;;;;;5.00;1.50;;;9.90;91.10;;;;;;10530883;28;20487;-64
2023/03/28 16:17:50;;;;;;;3.55;1.38;;;9.80;91.20;;;;;;10528252;28;20055;-63
2023/03/28 16:22:51;;;;;;;3.60;1.55;;;9.80;91.20;;;;;;10524255;28;20673;-63
2023/03/28 16:27:51;;;;;;;1.73;1.20;;;9.80;91.20;;;;;;10529000;28;20475;-63
2023/03/28 16:32:52;;;;;;;4.75;1.70;;;9.80;91.20;;;;;;10528829;28;20069;-63
2023/03/28 16:37:54;;;;;;;3.33;1.60;;;9.80;91.30;;;;;;10524700;28;20149;-63
2023/03/28 16:42:55;;;;;;;2.25;1.50;;;9.80;91.30;;;;;;10527607;28;20028;-63
2023/03/28 16:47:56;;;;;;;3.05;1.60;;;9.80;91.30;;;;;;10525540;28;20139;-63
2023/03/28 16:52:56;;;;;;;4.38;1.58;;;9.80;91.40;;;;;;10523614;28;20028;-63
2023/03/28 16:57:57;;;;;;;3.95;1.77;;;9.80;91.40;;;;;;10525243;28;20024;-63
2023/03/28 17:02:59;;;;;;;4.03;1.60;;;9.70;91.40;;;;;;10512014;28;20475;-64
2023/03/28 17:08:00;;;;;;;12.27;2.78;;;9.70;91.40;;;;;;10522425;28;20415;-65
2023/03/28 17:13:01;;;;;;;9.77;3.15;;;9.50;91.10;;;;;;10523342;28;20093;-63
2023/03/28 17:18:04;;;;;;;6.88;2.42;;;9.40;91.20;;;;;;10523700;28;20024;-63
2023/03/28 17:23:05;;;;;;;4.97;2.67;;;9.40;91.20;;;;;;10517671;28;20101;-62
2023/03/28 17:28:06;;;;;;;5.03;2.40;;;9.40;91.30;;;;;;10525076;28;20093;-62
2023/03/28 17:33:06;;;;;;;3.97;1.90;;;9.40;91.40;;;;;;10525501;28;20038;-63
2023/03/28 17:38:07;;;;;;;4.45;2.08;;;9.50;91.40;;;;;;10523856;28;20037;-64
2023/03/28 17:43:10;;;;;;;6.47;2.78;;;9.50;91.40;;;;;;10523979;28;20016;-63
2023/03/28 17:48:11;;;;;;;3.75;2.15;;;9.50;91.40;;;;;;10526107;28;20131;-62
2023/03/28 17:53:11;;;;;;;9.60;2.40;;;9.60;91.80;;;;;;10525073;28;20042;-63
2023/03/28 17:58:13;;;;;;;4.07;1.90;;;10.10;91.80;;;;;;10513085;28;20134;-63
2023/03/28 18:03:14;;;;;;;4.35;1.80;;;9.60;91.70;;;;;;10518188;28;20387;-63
2023/03/28 18:08:15;;;;;;;4.22;1.58;;;9.60;91.80;;;;;;10516102;28;20131;-63
2023/03/28 18:13:17;;;;;;;2.97;1.90;;;9.60;91.80;;;;;;10515902;28;20036;-64
2023/03/28 18:18:18;;;;;;;4.43;1.92;;;9.50;91.80;;;;;;10524307;28;20020;-63
2023/03/28 18:23:19;;;;;;;3.20;1.92;;;9.50;91.90;;;;;;10530580;28;20016;-62
2023/03/28 18:28:23;;;;;;;3.53;1.80;;;9.50;91.90;;;;;;10530593;28;20067;-63
2023/03/28 18:33:24;;;;;;;5.03;1.70;;;9.50;92.00;;;;;;10530549;28;20020;-63
2023/03/28 18:38:25;;;;;;;2.72;1.25;;;9.50;92.00;;;;;;10530136;28;20024;-63
2023/03/28 18:43:26;;;;;;;3.28;1.42;;;9.50;92.10;;;;;;10529661;28;20495;-63
2023/03/28 18:48:28;;;;;;;3.30;1.60;;;9.50;92.10;;;;;;10527725;28;20859;-64
2023/03/28 18:53:29;;;;;;;3.65;1.50;;;9.50;92.20;;;;;;10526583;28;20050;-63
2023/03/28 18:58:30;;;;;;;2.60;1.25;;;9.50;92.20;;;;;;10527962;28;20103;-62
2023/03/28 19:03:37;;;;;;;3.60;1.83;;;9.50;92.30;;;;;;10529968;28;20438;-62
2023/03/28 19:08:38;;;;;;;3.30;1.55;;;9.40;92.30;;;;;;10514501;28;20032;-62
2023/03/28 19:13:39;;;;;;;2.70;1.42;;;9.50;92.40;;;;;;10524612;28;20563;-63
2023/03/28 19:18:42;;;;;;;4.10;1.67;;;9.50;92.40;;;;;;10525126;28;20027;-62
2023/03/28 19:23:43;;;;;;;3.15;1.33;;;9.50;92.50;;;;;;10525968;28;20099;-63
2023/03/28 19:28:45;;;;;;;3.05;1.48;;;9.50;92.80;;;;;;10521499;28;20035;-63
2023/03/28 19:33:47;;;;;;;5.88;1.40;;;9.40;92.50;;;;;;10525551;28;20028;-63
2023/03/28 19:38:48;;;;;;;3.92;1.40;;;9.40;92.50;;;;;;10519554;28;20399;-64
2023/03/28 19:43:50;;;;;;;2.80;1.33;;;9.40;92.60;;;;;;10522889;28;20216;-64
2023/03/28 19:48:50;;;;;;;3.42;1.50;;;9.40;92.60;;;;;;10518571;28;20733;-64
2023/03/28 19:53:52;;;;;;;3.65;1.52;;;9.40;92.60;;;;;;10524503;28;20100;-64
2023/03/28 19:58:52;;;;;;;4.43;1.83;;;9.40;92.70;;;;;;10525551;28;20034;-63
2023/03/28 20:03:53;;;;;;;5.22;1.88;;;9.40;92.70;;;;;;10528139;28;20107;-64
2023/03/28 20:08:53;;;;;;;3.83;1.80;;;9.40;92.70;;;;;;10518127;28;20020;-64
2023/03/28 20:13:54;;;;;;;4.10;2.13;;;9.40;92.70;;;;;;10519327;28;20035;-65
2023/03/28 20:18:55;;;;;;;5.25;1.75;;;9.40;92.80;;;;;;10521029;28;20531;-64
2023/03/28 20:23:55;;;;;;;3.95;1.80;;;9.40;92.80;;;;;;10523062;28;20016;-64
2023/03/28 20:28:58;;;;;;;3.92;2.20;;;9.40;92.80;;;;;;10529914;28;20522;-63
2023/03/28 20:33:59;;;;;;;5.28;2.05;;;9.40;92.80;;;;;;10533262;28;20436;-63
2023/03/28 20:39:00;;;;;;;3.95;1.88;;;9.30;92.80;;;;;;10526315;28;20411;-64
2023/03/28 20:44:04;;;;;;;4.57;2.03;;;9.30;92.80;;;;;;10528120;28;20020;-63
2023/03/28 20:49:05;;;;;;;5.43;1.95;;;9.30;92.80;;;;;;10522273;28;20082;-64
2023/03/28 20:54:05;;;;;;;4.72;1.98;;;9.30;92.90;;;;;;10522047;28;20051;-64
2023/03/28 20:59:06;;;;;;;5.47;1.85;;;9.30;92.90;;;;;;10518693;28;20017;-63
2023/03/28 21:04:07;;;;;;;3.35;1.77;;;9.30;92.90;;;;;;10520256;28;20490;-64
2023/03/28 21:09:11;;;;;;;4.43;2.00;;;9.30;92.90;;;;;;10522671;28;20020;-64
2023/03/28 21:14:13;;;;;;;5.05;1.85;;;9.30;92.90;;;;;;10521517;28;20251;-64
2023/03/28 21:19:13;;;;;;;2.15;1.55;;;9.30;92.90;;;;;;10511591;28;20039;-64
2023/03/28 21:24:14;;;;;;;4.10;2.10;;;9.30;93.00;;;;;;10510849;28;20483;-65
2023/03/28 21:29:15;;;;;;;4.45;1.92;;;9.30;93.00;;;;;;10523668;28;20019;-65
2023/03/28 21:34:15;;;;;;;3.22;1.70;;;9.30;93.00;;;;;;10524579;28;20034;-64
2023/03/28 21:39:17;;;;;;;3.13;1.63;;;9.30;93.00;;;;;;10524051;28;20016;-64
2023/03/28 21:44:18;;;;;;;3.05;1.60;;;9.30;93.00;;;;;;10521276;28;20028;-64
2023/03/28 21:49:18;;;;;;;2.85;1.40;;;9.30;93.10;;;;;;10530547;28;20016;-64
2023/03/28 21:54:24;;;;;;;3.15;1.80;;;9.20;93.10;;;;;;10532164;28;20039;-64
2023/03/28 21:59:25;;;;;;;4.10;1.77;;;9.20;93.10;;;;;;10525195;28;20560;-64
2023/03/28 22:04:27;;;;;;;2.50;1.20;;;9.20;93.20;;;;;;10519668;28;20142;-64
2023/03/28 22:09:27;;;;;;;2.60;1.45;;;9.20;93.20;;;;;;10524716;28;20069;-64
2023/03/28 22:14:28;;;;;;;2.92;1.38;;;9.20;93.20;;;;;;10525040;28;20441;-63
2023/03/28 22:19:29;;;;;;;4.00;1.58;;;9.20;93.30;;;;;;10519663;28;20028;-63
2023/03/28 22:24:29;;;;;;;2.78;1.65;;;9.20;93.30;;;;;;10526708;28;20023;-63
2023/03/28 22:29:30;;;;;;;3.90;1.50;;;9.20;93.30;;;;;;10525101;28;20081;-63
2023/03/28 22:34:31;;;;;;;3.80;1.63;;;9.20;93.40;;;;;;10527376;28;20048;-63
2023/03/28 22:39:31;;;;;;;3.92;1.30;;;9.20;93.40;;;;;;10528796;28;20403;-64
2023/03/28 22:44:32;;;;;;;3.42;1.58;;;9.20;93.40;;;;;;10522890;28;20654;-64
2023/03/28 22:49:33;;;;;;;3.45;1.60;;;9.20;93.40;;;;;;10528198;28;20106;-62
2023/03/28 22:54:34;;;;;;;2.17;1.25;;;9.20;93.50;;;;;;10523814;28;20012;-64
2023/03/28 22:59:35;;;;;;;3.22;1.50;;;9.10;93.50;;;;;;10525336;28;20012;-63
2023/03/28 23:04:36;;;;;;;3.80;1.63;;;9.10;93.50;;;;;;10523429;28;20502;-63
2023/03/28 23:09:36;;;;;;;2.03;1.60;;;9.10;93.50;;;;;;10511649;28;20027;-63
2023/03/28 23:14:38;;;;;;;2.03;1.20;;;9.10;93.50;;;;;;10517917;28;20032;-63
2023/03/28 23:19:39;;;;;;;2.35;1.40;;;9.10;93.60;;;;;;10524580;28;20366;-63
2023/03/28 23:24:40;;;;;;;4.32;1.30;;;9.10;93.60;;;;;;10518137;28;20020;-64
2023/03/28 23:29:40;;;;;;;5.03;1.75;;;9.10;93.60;;;;;;10525377;28;20045;-64
2023/03/28 23:34:42;;;;;;;2.63;1.35;;;9.10;93.60;;;;;;10524629;28;20124;-65
2023/03/28 23:39:43;;;;;;;3.15;1.45;;;9.10;93.60;;;;;;10527079;28;20028;-64
2023/03/28 23:44:44;;;;;;;2.10;1.38;;;9.10;93.60;;;;;;10527562;28;20038;-63
2023/03/28 23:49:45;;;;;;;3.90;1.58;;;9.10;93.70;;;;;;10523682;28;20021;-63
2023/03/28 23:54:46;;;;;;;3.30;1.30;;;9.10;93.70;;;;;;10515142;28;20031;-64
2023/03/28 23:59:46;;;;;;;3.03;1.40;;;9.10;93.70;;;;;;10523621;28;20024;-64
